Time;durP1;ratioP1;P1;durP2;ratioP2;P2;SDS_P1;SDS_P2;PMS_P1;PMS_P2;Temp;Humidity;BMP_temperature;BMP_pressure;BME280_temperature;BME280_humidity;BME280_pressure;Samples;Min_cycle;Max_cycle;Signal;HPM_P1;HPM_P2
2024/02/06 00:00:59;;;;;;;10.45;9.07;;;3.50;99.90;;;;;;5068336;28;20672;-71
2024/02/06 00:03:27;;;;;;;10.13;7.75;;;3.40;99.90;;;;;;5067332;28;20664;-71
2024/02/06 00:05:54;;;;;;;10.82;8.50;;;3.40;99.90;;;;;;5068590;28;20546;-71
2024/02/06 00:08:21;;;;;;;9.85;8.82;;;3.40;99.90;;;;;;5069085;28;20225;-71
2024/02/06 00:10:48;;;;;;;10.40;7.70;;;3.50;99.90;;;;;;5067873;28;20194;-71
2024/02/06 00:13:14;;;;;;;13.35;8.90;;;3.50;99.90;;;;;;5068093;28;20201;-71
2024/02/06 00:15:41;;;;;;;9.90;8.90;;;3.50;99.90;;;;;;5068456;28;20213;-71
2024/02/06 00:18:08;;;;;;;15.40;8.70;;;3.50;99.90;;;;;;5068054;28;20201;-71
2024/02/06 00:20:36;;;;;;;10.23;9.02;;;3.40;99.90;;;;;;5068264;28;20234;-71
2024/02/06 00:23:03;;;;;;;11.60;8.32;;;3.40;99.90;;;;;;5067597;28;20282;-71
2024/02/06 00:25:30;;;;;;;11.48;9.20;;;3.30;99.90;;;;;;5068066;28;20203;-70
2024/02/06 00:27:57;;;;;;;11.52;8.57;;;3.40;99.90;;;;;;5067770;28;20203;-73
2024/02/06 00:30:24;;;;;;;11.57;9.98;;;3.40;99.90;;;;;;5068045;28;20237;-74
2024/02/06 00:32:52;;;;;;;13.85;9.95;;;3.30;99.90;;;;;;5067708;28;20220;-73
2024/02/06 00:35:19;;;;;;;13.90;9.50;;;3.30;99.90;;;;;;5067815;28;20206;-71
2024/02/06 00:37:47;;;;;;;9.57;8.68;;;3.30;99.90;;;;;;5067589;28;20213;-71
2024/02/06 00:40:14;;;;;;;13.50;9.90;;;3.20;99.90;;;;;;5068434;28;20833;-71
2024/02/06 00:42:41;;;;;;;11.93;9.15;;;3.10;99.90;;;;;;5067950;28;20198;-71
2024/02/06 00:45:08;;;;;;;10.93;9.80;;;3.20;99.90;;;;;;5068140;28;20291;-71
2024/02/06 00:47:36;;;;;;;14.13;10.10;;;3.20;99.90;;;;;;5066272;28;20567;-71
2024/02/06 00:50:03;;;;;;;11.45;10.25;;;3.10;99.90;;;;;;5068209;28;20236;-71
2024/02/06 00:52:29;;;;;;;13.50;9.95;;;3.20;99.90;;;;;;5067929;28;20202;-71
2024/02/06 00:54:58;;;;;;;9.32;8.35;;;3.10;99.90;;;;;;5067783;28;20206;-71
2024/02/06 00:57:24;;;;;;;12.30;10.50;;;3.20;99.90;;;;;;5068672;28;20289;-71
2024/02/06 00:59:51;;;;;;;12.63;9.50;;;3.20;99.90;;;;;;5068011;28;20210;-71
2024/02/06 01:02:18;;;;;;;11.98;10.77;;;3.30;99.90;;;;;;5067990;28;20233;-71
2024/02/06 01:04:45;;;;;;;13.63;11.48;;;3.40;99.90;;;;;;5067835;28;20311;-71
2024/02/06 01:07:12;;;;;;;14.27;10.70;;;3.40;99.90;;;;;;5068125;28;20623;-71
2024/02/06 01:09:39;;;;;;;18.15;11.70;;;3.40;99.90;;;;;;5067512;28;20582;-71
2024/02/06 01:12:07;;;;;;;14.98;11.27;;;3.50;99.90;;;;;;5068159;28;20564;-71
2024/02/06 01:14:36;;;;;;;18.27;10.48;;;3.50;99.90;;;;;;5068032;28;20213;-71
2024/02/06 01:17:03;;;;;;;17.65;11.20;;;3.50;99.90;;;;;;5068083;28;20367;-71
2024/02/06 01:19:30;;;;;;;12.30;9.23;;;3.60;99.90;;;;;;5068291;28;20206;-71
2024/02/06 01:21:57;;;;;;;15.10;10.18;;;3.60;99.90;;;;;;5067555;28;20214;-71
2024/02/06 01:24:23;;;;;;;14.88;10.95;;;3.50;99.90;;;;;;5067642;28;20208;-71
2024/02/06 01:26:51;;;;;;;16.75;11.20;;;3.60;99.90;;;;;;5067192;28;20221;-71
2024/02/06 01:29:19;;;;;;;16.63;11.80;;;3.50;99.90;;;;;;5067497;28;20765;-71
2024/02/06 01:31:46;;;;;;;17.92;12.00;;;3.70;99.90;;;;;;5067676;28;20202;-71
2024/02/06 01:34:16;;;;;;;15.52;10.55;;;3.70;99.90;;;;;;5067092;28;20214;-71
2024/02/06 01:36:43;;;;;;;12.68;9.88;;;3.70;99.90;;;;;;5064877;28;20596;-71
2024/02/06 01:39:11;;;;;;;13.85;9.80;;;3.70;99.90;;;;;;5068045;28;20222;-71
2024/02/06 01:41:38;;;;;;;13.15;10.02;;;3.80;99.90;;;;;;5064199;28;20201;-71
2024/02/06 01:44:05;;;;;;;14.10;9.93;;;3.80;99.90;;;;;;5067146;28;20207;-71
2024/02/06 01:46:34;;;;;;;13.23;10.63;;;3.90;99.90;;;;;;5063918;28;20226;-71
2024/02/06 01:49:03;;;;;;;15.68;10.30;;;3.90;99.90;;;;;;5068828;28;20304;-71
2024/02/06 01:51:33;;;;;;;12.82;9.82;;;3.90;99.90;;;;;;5072113;28;20201;-71
2024/02/06 01:54:00;;;;;;;15.35;10.63;;;3.90;99.90;;;;;;5071019;28;20289;-71
2024/02/06 01:56:27;;;;;;;11.05;9.65;;;3.90;99.90;;;;;;5071403;28;20203;-71
2024/02/06 01:58:55;;;;;;;13.25;10.15;;;3.90;99.90;;;;;;5071392;28;20199;-71
2024/02/06 02:01:22;;;;;;;11.90;9.00;;;3.80;99.90;;;;;;5071061;28;20195;-71
2024/02/06 02:03:54;;;;;;;13.52;9.80;;;3.70;99.90;;;;;;5070936;28;20199;-71
2024/02/06 02:06:21;;;;;;;13.40;9.60;;;3.60;99.90;;;;;;5070289;28;20210;-71
2024/02/06 02:08:51;;;;;;;11.65;9.43;;;3.50;99.90;;;;;;5071357;28;20198;-71
2024/02/06 02:11:19;;;;;;;13.98;9.60;;;3.50;99.90;;;;;;5071425;28;20202;-71
2024/02/06 02:13:47;;;;;;;13.10;10.18;;;3.50;99.90;;;;;;5070577;28;20195;-71
2024/02/06 02:16:18;;;;;;;14.32;9.75;;;3.50;99.90;;;;;;5071206;28;20592;-71
2024/02/06 02:18:46;;;;;;;13.63;9.88;;;3.50;99.90;;;;;;5070637;28;20234;-71
2024/02/06 02:21:15;;;;;;;10.95;8.85;;;3.40;99.90;;;;;;5070671;28;20214;-71
2024/02/06 02:23:43;;;;;;;13.25;9.38;;;3.40;99.90;;;;;;5069777;28;20210;-71
2024/02/06 02:26:13;;;;;;;17.38;10.30;;;3.30;99.90;;;;;;5070761;28;20211;-71
2024/02/06 02:28:41;;;;;;;15.38;8.68;;;3.30;99.90;;;;;;5071109;28;20249;-71
2024/02/06 02:31:09;;;;;;;14.02;9.32;;;3.20;99.90;;;;;;5070823;28;20203;-71
2024/02/06 02:33:37;;;;;;;11.55;9.30;;;3.20;99.90;;;;;;5069634;28;20209;-71
2024/02/06 02:36:04;;;;;;;11.70;8.80;;;3.20;99.90;;;;;;5071124;28;20192;-71
2024/02/06 02:38:35;;;;;;;12.43;8.50;;;3.10;99.90;;;;;;5071133;28;20289;-71
2024/02/06 02:41:02;;;;;;;10.52;8.10;;;3.20;99.90;;;;;;5071118;28;20202;-71
2024/02/06 02:43:30;;;;;;;13.65;9.30;;;3.10;99.90;;;;;;5070559;28;20211;-71
2024/02/06 02:45:58;;;;;;;10.93;9.82;;;3.10;99.90;;;;;;5069696;28;20213;-71
2024/02/06 02:48:25;;;;;;;11.30;7.78;;;3.00;99.90;;;;;;5070939;28;20241;-71
2024/02/06 02:50:52;;;;;;;12.63;8.90;;;3.00;99.90;;;;;;5070499;28;20274;-71
2024/02/06 02:53:20;;;;;;;10.38;9.38;;;3.00;99.90;;;;;;5070400;28;20211;-71
2024/02/06 02:55:49;;;;;;;13.48;9.75;;;3.00;99.90;;;;;;5070489;28;20260;-71
2024/02/06 02:58:17;;;;;;;12.48;9.20;;;2.90;99.90;;;;;;5070317;28;20221;-71
2024/02/06 03:00:47;;;;;;;12.30;9.02;;;2.90;99.90;;;;;;5069745;28;20205;-73
2024/02/06 03:03:13;;;;;;;12.35;10.52;;;2.80;99.90;;;;;;5070025;28;20198;-71
2024/02/06 03:05:41;;;;;;;10.98;9.38;;;2.80;99.90;;;;;;5070476;28;20293;-71
2024/02/06 03:08:09;;;;;;;13.52;8.48;;;2.80;99.90;;;;;;5070732;28;20241;-71
2024/02/06 03:10:36;;;;;;;14.02;10.13;;;2.80;99.90;;;;;;5070184;28;20217;-71
2024/02/06 03:13:05;;;;;;;9.57;8.52;;;2.70;99.90;;;;;;5069090;28;20226;-70
2024/02/06 03:15:33;;;;;;;13.90;9.25;;;2.70;99.90;;;;;;5070398;28;20266;-71
2024/02/06 03:18:01;;;;;;;12.13;8.63;;;2.60;99.90;;;;;;5070257;28;20192;-71
2024/02/06 03:20:30;;;;;;;10.10;8.27;;;2.60;99.90;;;;;;5070033;28;20205;-71
2024/02/06 03:22:57;;;;;;;18.25;9.68;;;2.60;99.90;;;;;;5069991;28;20278;-71
2024/02/06 03:25:26;;;;;;;12.13;9.20;;;2.70;99.90;;;;;;5069329;28;20314;-71
2024/02/06 03:27:54;;;;;;;12.18;8.23;;;2.70;99.90;;;;;;5069589;28;20604;-71
2024/02/06 03:30:26;;;;;;;17.08;9.63;;;2.70;99.90;;;;;;5069764;28;20252;-71
2024/02/06 03:32:53;;;;;;;12.25;8.68;;;2.70;99.90;;;;;;5069791;28;20244;-71
2024/02/06 03:35:21;;;;;;;19.55;9.32;;;2.70;99.90;;;;;;5069391;28;20203;-71
2024/02/06 03:37:48;;;;;;;12.65;9.48;;;2.80;99.90;;;;;;5069567;28;20194;-71
2024/02/06 03:40:15;;;;;;;11.52;8.45;;;2.80;99.90;;;;;;5068771;28;20205;-71
2024/02/06 03:42:42;;;;;;;13.60;7.80;;;2.70;99.90;;;;;;5069397;28;20198;-71
2024/02/06 03:45:09;;;;;;;11.35;9.07;;;2.70;99.90;;;;;;5069750;28;20205;-71
2024/02/06 03:47:39;;;;;;;11.40;7.82;;;2.60;99.90;;;;;;5069580;28;20202;-71
2024/02/06 03:50:07;;;;;;;12.50;9.50;;;2.60;99.90;;;;;;5069731;28;20229;-71
2024/02/06 03:52:34;;;;;;;16.02;8.98;;;2.50;99.90;;;;;;5068535;28;20202;-71
2024/02/06 03:55:01;;;;;;;9.90;7.50;;;2.50;99.90;;;;;;5068828;28;20231;-71
2024/02/06 03:57:28;;;;;;;10.10;8.32;;;2.50;99.90;;;;;;5068843;28;20853;-71
2024/02/06 03:59:56;;;;;;;9.40;8.27;;;2.40;99.90;;;;;;5069334;28;20205;-71
2024/02/06 04:02:24;;;;;;;11.27;8.80;;;2.40;99.90;;;;;;5069119;28;20205;-71
2024/02/06 04:04:52;;;;;;;9.75;8.05;;;2.40;99.90;;;;;;5068465;28;20197;-71
2024/02/06 04:07:21;;;;;;;13.15;8.45;;;2.40;99.90;;;;;;5062266;28;20201;-71
2024/02/06 04:09:49;;;;;;;17.65;9.07;;;2.50;99.90;;;;;;5068511;28;20316;-71
2024/02/06 04:12:16;;;;;;;11.18;8.95;;;2.30;99.90;;;;;;5068266;28;20201;-72
2024/02/06 04:14:43;;;;;;;12.23;7.20;;;2.40;99.90;;;;;;5069186;28;20661;-71
2024/02/06 04:17:10;;;;;;;11.52;8.93;;;2.40;99.90;;;;;;5068719;28;20278;-71
2024/02/06 04:19:37;;;;;;;14.23;8.77;;;2.20;99.90;;;;;;5068388;28;20211;-71
2024/02/06 04:22:05;;;;;;;10.18;8.27;;;2.30;99.90;;;;;;5068917;28;20562;-71
2024/02/06 04:24:32;;;;;;;18.58;10.73;;;2.20;99.90;;;;;;5058197;28;20583;-71
2024/02/06 04:26:59;;;;;;;13.10;8.20;;;2.10;99.90;;;;;;5069230;28;20562;-71
2024/02/06 04:29:26;;;;;;;13.18;8.57;;;2.20;99.90;;;;;;5068698;28;20557;-71
2024/02/06 04:31:53;;;;;;;10.98;8.40;;;2.30;99.90;;;;;;5068495;28;20655;-71
2024/02/06 04:34:20;;;;;;;11.40;8.60;;;2.20;99.90;;;;;;5067327;28;20210;-71
2024/02/06 04:36:47;;;;;;;8.63;7.50;;;2.20;99.90;;;;;;5068478;28;20201;-71
2024/02/06 04:39:15;;;;;;;11.23;8.38;;;2.10;99.90;;;;;;5068817;28;20206;-71
2024/02/06 04:41:42;;;;;;;11.02;7.45;;;2.20;99.90;;;;;;5067634;28;20223;-71
2024/02/06 04:44:09;;;;;;;13.18;9.25;;;2.20;99.90;;;;;;5066306;28;20617;-71
2024/02/06 04:46:35;;;;;;;10.93;8.93;;;2.20;99.90;;;;;;5075227;28;20219;-71
2024/02/06 04:49:02;;;;;;;12.52;8.23;;;2.20;99.90;;;;;;5066895;28;20284;-71
2024/02/06 04:51:29;;;;;;;8.95;7.47;;;2.30;99.90;;;;;;5063466;28;20598;-71
2024/02/06 04:53:56;;;;;;;9.07;8.00;;;2.30;99.90;;;;;;5063818;28;20200;-74
2024/02/06 04:56:25;;;;;;;11.10;9.57;;;2.30;99.90;;;;;;5069868;28;20756;-71
2024/02/06 04:58:52;;;;;;;10.45;7.40;;;2.30;99.90;;;;;;5066044;28;20204;-71
2024/02/06 05:01:17;;;;;;;14.38;8.98;;;2.30;99.90;;;;;;5067778;28;20210;-71
2024/02/06 05:03:44;;;;;;;16.00;9.90;;;2.30;99.90;;;;;;5067254;28;20194;-71
2024/02/06 05:06:12;;;;;;;14.13;8.45;;;2.30;99.90;;;;;;5068624;28;20618;-71
2024/02/06 05:08:39;;;;;;;14.65;9.63;;;2.10;99.90;;;;;;5068602;28;20199;-71
2024/02/06 05:11:06;;;;;;;16.10;9.70;;;2.10;99.90;;;;;;5068056;28;20696;-71
2024/02/06 05:13:34;;;;;;;13.57;8.27;;;2.10;99.90;;;;;;5067595;28;20212;-71
2024/02/06 05:16:01;;;;;;;12.40;9.40;;;2.10;99.90;;;;;;5067322;28;20203;-71
2024/02/06 05:18:28;;;;;;;16.90;9.02;;;2.00;99.90;;;;;;5068321;28;20200;-71
2024/02/06 05:20:57;;;;;;;12.90;10.00;;;2.00;99.90;;;;;;5068637;28;20202;-71
2024/02/06 05:23:24;;;;;;;13.52;9.93;;;2.10;99.90;;;;;;5067409;28;20799;-71
2024/02/06 05:25:51;;;;;;;14.98;10.13;;;2.10;99.90;;;;;;5067437;28;20199;-71
2024/02/06 05:28:18;;;;;;;13.82;10.35;;;2.00;99.90;;;;;;5067455;28;20199;-71
2024/02/06 05:30:46;;;;;;;16.65;10.55;;;2.20;99.90;;;;;;5067604;28;20784;-74
2024/02/06 05:33:13;;;;;;;12.88;9.30;;;2.30;99.90;;;;;;5067664;28;20201;-71
2024/02/06 05:35:40;;;;;;;14.20;9.48;;;2.40;99.90;;;;;;5067814;28;20195;-71
2024/02/06 05:38:06;;;;;;;15.23;7.68;;;2.40;99.90;;;;;;5067464;28;20206;-70
2024/02/06 05:40:33;;;;;;;14.13;8.60;;;2.50;99.90;;;;;;5066548;28;20205;-72
2024/02/06 05:43:00;;;;;;;12.90;8.88;;;2.50;99.90;;;;;;5066794;28;20414;-70
2024/02/06 05:45:27;;;;;;;14.07;8.27;;;2.60;99.90;;;;;;5067968;28;20208;-70
2024/02/06 05:47:59;;;;;;;9.95;8.73;;;2.80;99.90;;;;;;5067712;28;20192;-70
2024/02/06 05:50:27;;;;;;;10.35;8.20;;;2.70;99.90;;;;;;5067463;28;20311;-72
2024/02/06 05:52:54;;;;;;;9.05;7.80;;;2.80;99.90;;;;;;5067318;28;20200;-70
2024/02/06 05:55:21;;;;;;;10.43;8.05;;;3.40;99.90;;;;;;5067467;28;20200;-71
2024/02/06 05:57:48;;;;;;;12.48;8.45;;;3.00;99.90;;;;;;5067892;28;20203;-71
2024/02/06 06:00:16;;;;;;;9.05;6.60;;;3.00;99.90;;;;;;5067445;28;20196;-72
2024/02/06 06:02:43;;;;;;;9.35;7.07;;;3.00;99.90;;;;;;5065814;28;20201;-73
2024/02/06 06:05:11;;;;;;;9.80;7.63;;;3.00;99.90;;;;;;5061317;28;20204;-73
2024/02/06 06:07:38;;;;;;;9.90;7.22;;;3.10;99.90;;;;;;5063816;28;20745;-77
2024/02/06 06:10:05;;;;;;;7.93;7.10;;;3.20;99.90;;;;;;5067098;28;20209;-79
2024/02/06 06:12:32;;;;;;;8.40;7.05;;;3.10;99.90;;;;;;5066920;28;20198;-77
2024/02/06 06:14:59;;;;;;;8.02;6.50;;;3.20;99.90;;;;;;5067540;28;20309;-78
2024/02/06 06:17:25;;;;;;;11.95;7.65;;;3.10;99.90;;;;;;5067806;28;20207;-77
2024/02/06 06:19:52;;;;;;;11.30;7.60;;;3.10;99.90;;;;;;5067200;28;20292;-76
2024/02/06 06:22:20;;;;;;;10.20;7.38;;;3.10;99.90;;;;;;5067182;28;20204;-77
2024/02/06 06:24:47;;;;;;;11.73;7.88;;;3.40;99.90;;;;;;5067008;28;20198;-78
2024/02/06 06:27:15;;;;;;;10.23;8.68;;;3.40;99.90;;;;;;5066762;28;20215;-78
2024/02/06 06:29:44;;;;;;;13.43;7.50;;;3.40;99.90;;;;;;5067177;28;20205;-78
2024/02/06 06:32:11;;;;;;;10.35;7.82;;;3.50;99.90;;;;;;5065978;28;20222;-74
2024/02/06 06:34:39;;;;;;;12.13;8.73;;;3.50;99.90;;;;;;5068362;28;20207;-73
2024/02/06 06:37:05;;;;;;;10.15;7.60;;;3.50;99.90;;;;;;5070718;28;20217;-74
2024/02/06 06:39:34;;;;;;;8.98;6.50;;;3.50;99.90;;;;;;5070326;28;20213;-73
2024/02/06 06:42:00;;;;;;;11.30;7.32;;;3.50;99.90;;;;;;5070884;28;20199;-74
2024/02/06 06:44:27;;;;;;;8.75;7.22;;;3.70;99.90;;;;;;5070364;28;20293;-74
2024/02/06 06:46:54;;;;;;;10.32;6.13;;;3.60;99.90;;;;;;5070768;28;20209;-73
2024/02/06 06:49:21;;;;;;;9.50;7.35;;;3.70;99.90;;;;;;5070836;28;20288;-73
2024/02/06 06:51:48;;;;;;;7.68;6.30;;;3.80;99.90;;;;;;5071137;28;20210;-73
2024/02/06 06:54:15;;;;;;;7.75;6.28;;;3.60;99.90;;;;;;5070509;28;20203;-74
2024/02/06 06:56:43;;;;;;;13.10;6.60;;;3.70;99.90;;;;;;5070407;28;20300;-74
2024/02/06 06:59:10;;;;;;;11.07;8.18;;;3.70;99.90;;;;;;5061977;28;20681;-73
2024/02/06 07:01:37;;;;;;;8.50;6.30;;;3.80;99.90;;;;;;5050940;28;20656;-74
2024/02/06 07:04:04;;;;;;;7.70;5.60;;;3.80;99.90;;;;;;5050401;28;20689;-73
2024/02/06 07:06:31;;;;;;;7.20;6.13;;;3.80;99.90;;;;;;5050229;28;20664;-73
2024/02/06 07:08:58;;;;;;;8.48;7.60;;;4.30;99.90;;;;;;5050546;28;20561;-74
2024/02/06 07:11:25;;;;;;;10.50;6.70;;;;;;;;;;5050494;28;20710;-74
2024/02/06 07:13:54;;;;;;;7.78;6.97;;;3.90;99.90;;;;;;5049942;28;20195;-73
2024/02/06 07:16:20;;;;;;;8.55;7.57;;;3.90;99.90;;;;;;5050707;28;20557;-74
2024/02/06 07:18:47;;;;;;;7.10;5.72;;;3.90;99.90;;;;;;5050370;28;20673;-74
2024/02/06 07:21:14;;;;;;;7.35;6.05;;;4.00;99.90;;;;;;5050166;28;20213;-73
2024/02/06 07:23:41;;;;;;;10.35;6.70;;;4.00;99.90;;;;;;5049873;28;20197;-73
2024/02/06 07:26:10;;;;;;;12.52;7.20;;;3.90;99.90;;;;;;5050034;28;20205;-73
2024/02/06 07:28:38;;;;;;;10.57;6.68;;;;;;;;;;5050448;28;20207;-74
2024/02/06 07:31:06;;;;;;;9.45;6.05;;;4.10;99.90;;;;;;5050698;28;20228;-74
2024/02/06 07:33:33;;;;;;;8.27;6.10;;;4.20;99.90;;;;;;5049427;28;20269;-73
2024/02/06 07:36:00;;;;;;;8.23;5.93;;;4.30;99.90;;;;;;5049982;28;20293;-74
2024/02/06 07:38:27;;;;;;;7.07;4.85;;;;;;;;;;5050303;28;20196;-73
2024/02/06 07:40:54;;;;;;;8.27;5.65;;;4.50;99.90;;;;;;5050174;28;20580;-73
2024/02/06 07:43:21;;;;;;;9.95;6.40;;;4.20;99.90;;;;;;5049613;28;20206;-73
2024/02/06 07:45:47;;;;;;;9.57;6.32;;;4.20;99.90;;;;;;5050060;28;20221;-73
2024/02/06 07:48:15;;;;;;;8.43;5.20;;;4.20;99.90;;;;;;5048826;28;21096;-73
2024/02/06 07:50:42;;;;;;;5.82;5.20;;;4.30;99.90;;;;;;5049752;28;20214;-73
2024/02/06 07:53:09;;;;;;;5.80;4.90;;;;;;;;;;5049234;28;20202;-74
2024/02/06 07:55:37;;;;;;;5.75;4.95;;;;;;;;;;5049862;28;20676;-74
2024/02/06 07:58:04;;;;;;;6.40;5.38;;;4.50;99.90;;;;;;5049826;28;20207;-73
2024/02/06 08:00:31;;;;;;;8.52;5.15;;;4.50;99.90;;;;;;5049582;28;20634;-74
2024/02/06 08:02:59;;;;;;;10.75;4.47;;;;;;;;;;5048982;28;20556;-74
2024/02/06 08:05:28;;;;;;;6.90;4.70;;;4.60;99.90;;;;;;5049742;28;20234;-74
2024/02/06 08:07:55;;;;;;;7.78;4.50;;;4.70;99.90;;;;;;5049858;28;20717;-73
2024/02/06 08:10:22;;;;;;;7.32;5.53;;;;;;;;;;5049892;28;20202;-73
2024/02/06 08:12:49;;;;;;;5.55;4.30;;;;;;;;;;5048879;28;20581;-74
2024/02/06 08:15:16;;;;;;;18.80;5.78;;;4.90;99.90;;;;;;5048763;28;20286;-74
2024/02/06 08:17:47;;;;;;;7.03;4.30;;;4.20;99.90;;;;;;5049040;28;20207;-74
2024/02/06 08:20:16;;;;;;;9.57;4.72;;;4.80;99.90;;;;;;5049529;28;20206;-74
2024/02/06 08:22:47;;;;;;;12.10;5.30;;;4.90;99.90;;;;;;5049130;28;20196;-74
2024/02/06 08:25:15;;;;;;;13.25;4.00;;;;;;;;;;5049354;28;20767;-73
2024/02/06 08:27:42;;;;;;;9.27;4.72;;;5.40;99.90;;;;;;5048323;28;20296;-74
2024/02/06 08:30:10;;;;;;;10.85;4.60;;;5.20;99.90;;;;;;5049196;28;20200;-73
2024/02/06 08:32:36;;;;;;;7.30;4.20;;;5.10;99.90;;;;;;5048846;28;20509;-73
2024/02/06 08:35:04;;;;;;;6.40;4.78;;;5.30;99.90;;;;;;5049279;28;20520;-74
2024/02/06 08:37:31;;;;;;;5.47;4.40;;;5.40;99.90;;;;;;5049107;28;20211;-74
2024/02/06 08:40:00;;;;;;;6.25;4.57;;;5.00;99.90;;;;;;5049015;28;20200;-74
2024/02/06 08:42:27;;;;;;;9.10;4.60;;;5.20;99.90;;;;;;5048202;28;20207;-73
2024/02/06 08:44:54;;;;;;;7.22;3.83;;;5.20;99.90;;;;;;5048736;28;20675;-73
2024/02/06 08:47:21;;;;;;;5.55;3.92;;;;;;;;;;5049110;28;20204;-73
2024/02/06 08:49:48;;;;;;;14.43;4.65;;;5.40;99.90;;;;;;5048820;28;20593;-73
2024/02/06 08:52:15;;;;;;;5.25;3.88;;;;;;;;;;5048041;28;20220;-74
2024/02/06 08:54:42;;;;;;;6.22;4.50;;;5.30;99.90;;;;;;5048136;28;20196;-73
2024/02/06 08:57:10;;;;;;;5.28;4.05;;;5.70;99.90;;;;;;5047891;28;20198;-73
2024/02/06 08:59:37;;;;;;;5.85;4.05;;;5.60;99.90;;;;;;5048849;28;20302;-74
2024/02/06 09:02:04;;;;;;;6.50;4.13;;;5.80;99.90;;;;;;5048927;28;20560;-73
2024/02/06 09:04:31;;;;;;;10.40;4.70;;;4.70;99.90;;;;;;5048109;28;20563;-73
2024/02/06 09:06:59;;;;;;;4.05;3.65;;;5.30;99.90;;;;;;5048118;28;20261;-74
2024/02/06 09:09:26;;;;;;;10.52;4.78;;;5.90;99.90;;;;;;5047874;28;20677;-73
2024/02/06 09:11:53;;;;;;;7.35;5.28;;;5.70;99.90;;;;;;5048495;28;20251;-73
2024/02/06 09:14:21;;;;;;;8.52;3.92;;;5.90;99.90;;;;;;5047873;28;20287;-73
2024/02/06 09:16:48;;;;;;;6.38;3.40;;;5.80;99.90;;;;;;5048748;28;20196;-73
2024/02/06 09:19:14;;;;;;;10.00;4.07;;;6.20;99.90;;;;;;5048292;28;20200;-73
2024/02/06 09:21:41;;;;;;;5.28;3.78;;;6.00;99.90;;;;;;5048130;28;20207;-73
2024/02/06 09:24:08;;;;;;;3.63;3.17;;;6.30;99.90;;;;;;5047576;28;20204;-73
2024/02/06 09:26:35;;;;;;;4.93;3.70;;;6.50;99.90;;;;;;5048256;28;20661;-73
2024/02/06 09:29:02;;;;;;;8.43;3.85;;;;;;;;;;5048418;28;20628;-73
2024/02/06 09:31:30;;;;;;;4.50;3.22;;;6.50;99.90;;;;;;5048419;28;20230;-73
2024/02/06 09:33:57;;;;;;;3.78;3.17;;;6.50;99.90;;;;;;5047483;28;20563;-73
2024/02/06 09:36:24;;;;;;;5.93;3.88;;;6.80;99.90;;;;;;5046756;28;20548;-73
2024/02/06 09:38:51;;;;;;;4.85;3.05;;;6.90;99.90;;;;;;5048311;28;20194;-73
2024/02/06 09:41:18;;;;;;;4.38;2.95;;;6.70;99.90;;;;;;5048371;28;20242;-73
2024/02/06 09:43:45;;;;;;;4.93;3.30;;;7.30;99.90;;;;;;5048033;28;20191;-73
2024/02/06 09:46:13;;;;;;;4.65;2.85;;;6.80;99.90;;;;;;5048036;28;20207;-73
2024/02/06 09:48:43;;;;;;;4.85;3.13;;;6.70;99.90;;;;;;5047873;28;20196;-73
2024/02/06 09:51:11;;;;;;;3.15;2.53;;;6.90;99.90;;;;;;5047482;28;20231;-73
2024/02/06 09:53:39;;;;;;;3.10;2.80;;;7.10;99.90;;;;;;5048009;28;20211;-73
2024/02/06 09:56:06;;;;;;;2.30;2.10;;;6.90;99.90;;;;;;5048283;28;20204;-73
2024/02/06 09:58:33;;;;;;;4.32;3.38;;;7.10;99.90;;;;;;5047750;28;20627;-73
2024/02/06 10:01:01;;;;;;;2.97;2.60;;;7.30;99.90;;;;;;5047682;28;20296;-73
2024/02/06 10:03:30;;;;;;;2.67;2.47;;;7.20;99.50;;;;;;5046879;28;21418;-73
2024/02/06 10:06:01;;;;;;;3.27;2.40;;;7.00;99.90;;;;;;5046249;28;20203;-73
2024/02/06 10:08:28;;;;;;;3.10;2.43;;;7.50;99.90;;;;;;5048185;28;20631;-73
2024/02/06 10:10:57;;;;;;;2.90;2.50;;;7.60;99.90;;;;;;5051050;28;20641;-73
2024/02/06 10:13:23;;;;;;;2.22;2.03;;;7.50;99.90;;;;;;5051006;28;20639;-73
2024/02/06 10:15:52;;;;;;;3.03;1.90;;;8.20;99.90;;;;;;5051259;28;20200;-73
2024/02/06 10:18:19;;;;;;;2.70;2.27;;;7.50;99.90;;;;;;5051711;28;20697;-73
2024/02/06 10:20:46;;;;;;;4.33;2.03;;;7.50;99.90;;;;;;5051960;28;20629;-73
2024/02/06 10:23:16;;;;;;;3.20;2.50;;;7.90;99.90;;;;;;5051372;28;20629;-73
2024/02/06 10:25:43;;;;;;;1.92;1.80;;;7.80;99.90;;;;;;5051594;28;20619;-73
2024/02/06 10:28:10;;;;;;;3.30;2.20;;;7.70;99.90;;;;;;5051131;28;20208;-73
2024/02/06 10:30:36;;;;;;;4.23;2.17;;;7.90;99.90;;;;;;5051606;28;21006;-73
2024/02/06 10:33:14;;;;;;;1.80;1.57;;;8.00;99.90;;;;;;5051214;28;20911;-73
2024/02/06 10:35:41;;;;;;;1.40;1.17;;;4.60;95.80;;;;;;5050451;28;20618;-73
2024/02/06 10:38:11;;;;;;;4.90;1.63;;;8.00;99.90;;;;;;5050961;28;21390;-73
2024/02/06 10:40:40;;;;;;;1.97;1.70;;;8.00;97.60;;;;;;5051381;28;20634;-73
2024/02/06 10:43:07;;;;;;;2.60;1.37;;;8.20;99.90;;;;;;5050196;28;20641;-73
2024/02/06 10:45:34;;;;;;;3.93;1.43;;;8.10;99.90;;;;;;5051600;28;20662;-73
2024/02/06 10:48:02;;;;;;;2.20;1.37;;;8.20;99.90;;;;;;5050978;28;20725;-74
2024/02/06 10:50:30;;;;;;;1.73;1.57;;;8.30;99.90;;;;;;5050759;28;20629;-73
2024/02/06 10:52:57;;;;;;;1.50;1.37;;;8.40;97.20;;;;;;5050338;28;20772;-73
2024/02/06 10:55:24;;;;;;;2.80;1.83;;;8.50;99.90;;;;;;5049898;28;20639;-73
2024/02/06 10:58:05;;;;;;;2.63;1.63;;;8.30;99.90;;;;;;5050624;28;20630;-73
2024/02/06 11:00:34;;;;;;;2.30;1.53;;;8.40;97.30;;;;;;5050937;28;20626;-73
2024/02/06 11:03:05;;;;;;;1.53;1.43;;;8.40;99.90;;;;;;5050343;28;21242;-73
2024/02/06 11:05:38;;;;;;;2.13;1.67;;;8.60;96.80;;;;;;5051049;28;20836;-73
2024/02/06 11:08:08;;;;;;;7.07;1.60;;;8.10;96.30;;;;;;5050314;28;20638;-73
2024/02/06 11:10:38;;;;;;;4.03;1.70;;;8.60;96.60;;;;;;5050816;28;21249;-73
2024/02/06 11:13:08;;;;;;;1.80;1.60;;;8.70;96.40;;;;;;5050357;28;20676;-73
2024/02/06 11:15:37;;;;;;;6.60;1.40;;;8.70;99.90;;;;;;5050826;28;20628;-73
2024/02/06 11:18:09;;;;;;;2.23;1.47;;;8.60;99.90;;;;;;5050515;28;20994;-73
2024/02/06 11:20:40;;;;;;;1.70;1.60;;;8.80;99.50;;;;;;5049783;28;20630;-73
2024/02/06 11:23:08;;;;;;;1.67;1.20;;;8.30;99.90;;;;;;5050231;28;20623;-73
2024/02/06 11:25:36;;;;;;;1.50;1.40;;;9.10;98.90;;;;;;5050443;28;20638;-73
2024/02/06 11:28:04;;;;;;;1.23;1.13;;;9.00;96.30;;;;;;5050101;28;20647;-73
2024/02/06 11:30:33;;;;;;;2.30;2.00;;;8.80;99.90;;;;;;5050479;28;20625;-73
2024/02/06 11:33:04;;;;;;;6.50;1.33;;;9.10;99.10;;;;;;5049503;28;20757;-73
2024/02/06 11:35:32;;;;;;;4.07;1.90;;;9.50;96.70;;;;;;5050525;28;20983;-73
2024/02/06 11:37:59;;;;;;;2.80;1.33;;;;;;;;;;5050185;28;20619;-73
2024/02/06 11:40:28;;;;;;;1.70;1.23;;;;;;;;;;5050039;28;20980;-73
2024/02/06 11:43:02;;;;;;;2.73;1.83;;;9.20;99.90;;;;;;5049534;28;21231;-73
2024/02/06 11:45:29;;;;;;;2.63;2.00;;;;;;;;;;5044146;28;20634;-73
2024/02/06 11:47:58;;;;;;;4.00;2.00;;;8.90;99.90;;;;;;5049485;28;20714;-73
2024/02/06 11:50:33;;;;;;;4.80;1.70;;;8.80;99.90;;;;;;5050098;28;20722;-73
2024/02/06 11:53:02;;;;;;;3.57;1.50;;;8.80;95.60;;;;;;5049157;28;20666;-73
2024/02/06 11:55:29;;;;;;;4.23;1.90;;;9.10;99.90;;;;;;5048535;28;20630;-73
2024/02/06 11:57:57;;;;;;;2.93;1.60;;;9.10;96.00;;;;;;5049810;28;20637;-73
2024/02/06 12:00:25;;;;;;;1.90;1.80;;;9.30;99.90;;;;;;5049510;28;20739;-73
2024/02/06 12:02:52;;;;;;;2.67;2.17;;;9.40;99.90;;;;;;5049420;28;21035;-73
2024/02/06 12:05:20;;;;;;;2.37;1.77;;;9.20;95.40;;;;;;5049899;28;20628;-73
2024/02/06 12:07:57;;;;;;;5.80;1.60;;;9.40;99.90;;;;;;5049790;28;20742;-73
2024/02/06 12:10:29;;;;;;;2.70;1.47;;;9.20;95.50;;;;;;5043266;28;20750;-73
2024/02/06 12:13:00;;;;;;;2.63;1.73;;;9.20;95.90;;;;;;5048446;28;20980;-73
2024/02/06 12:15:28;;;;;;;3.63;1.80;;;9.20;95.50;;;;;;5049315;28;20731;-73
2024/02/06 12:17:55;;;;;;;1.87;1.67;;;;;;;;;;5049313;28;21039;-73
2024/02/06 12:20:24;;;;;;;2.40;1.47;;;9.30;99.90;;;;;;5049627;28;20620;-73
2024/02/06 12:23:03;;;;;;;7.10;2.17;;;9.20;95.40;;;;;;5048550;28;20615;-73
2024/02/06 12:25:30;;;;;;;3.00;1.60;;;;;;;;;;5049396;28;20670;-73
2024/02/06 12:28:01;;;;;;;4.83;1.57;;;9.10;99.90;;;;;;5048768;28;20650;-73
2024/02/06 12:30:29;;;;;;;1.90;1.63;;;9.10;99.90;;;;;;5049037;28;21246;-74
2024/02/06 12:32:58;;;;;;;1.67;1.47;;;9.20;99.90;;;;;;5048108;28;20669;-73
2024/02/06 12:35:26;;;;;;;3.47;1.57;;;9.00;95.00;;;;;;5049190;28;20629;-73
2024/02/06 12:37:56;;;;;;;2.20;1.47;;;9.60;97.40;;;;;;5048532;28;21193;-73
2024/02/06 12:40:24;;;;;;;5.60;1.80;;;;;;;;;;5049218;28;20627;-73
2024/02/06 12:42:51;;;;;;;2.47;1.80;;;9.20;94.80;;;;;;5048297;28;20634;-73
2024/02/06 12:45:20;;;;;;;4.43;1.63;;;9.20;94.90;;;;;;5049152;28;20727;-73
2024/02/06 12:47:48;;;;;;;3.80;1.60;;;9.20;95.00;;;;;;5048906;28;20626;-75
2024/02/06 12:50:15;;;;;;;2.63;1.93;;;9.10;99.90;;;;;;5048687;28;21059;-73
2024/02/06 12:52:43;;;;;;;15.70;1.80;;;9.10;99.90;;;;;;5048375;28;20679;-73
2024/02/06 12:55:12;;;;;;;2.60;1.60;;;9.10;95.30;;;;;;5047356;28;20628;-73
2024/02/06 12:57:41;;;;;;;1.97;1.70;;;8.90;95.00;;;;;;5049159;28;20749;-73